Terminal Aerodrome Forecast
Issued by NWS

Home | Current Version | Previous Version | Text Only | Print | Product List | Glossary On
Versions: 1 2 3 4 5 6 7 8 9 10 11 12 13 14 15 16 17 18 19 20 21 22 23 24 25 26 27 28 29 30 31 32 33 34 35 36
000
FTAK31 PANC 242342
TAFAHO
TAF
PAHO 242342Z 2500/2524 25010KT P6SM BKN060 OVC100
     FM250600 VRB03KT P6SM VCSH BKN040
     FM251500 12006KT P6SM -RA BKN035 OVC050
     FM252100 23007KT P6SM -RA SCT020 OVC035=

USA.gov is the U.S. government's official web portal to all federal, state and local government web resources and services.